Time;durP1;ratioP1;P1;durP2;ratioP2;P2;SDS_P1;SDS_P2;PMS_P1;PMS_P2;Temp;Humidity;BMP_temperature;BMP_pressure;BME280_temperature;BME280_humidity;BME280_pressure;Samples;Min_cycle;Max_cycle;Signal;HPM_P1;HPM_P2
2023/08/28 00:02:15;;;;;;;5.90;3.90;;;16.50;63.40;;;;;;5088228;27;46396;-67
2023/08/28 00:04:41;;;;;;;6.90;4.30;;;16.50;63.40;;;;;;5083638;27;46427;-67
2023/08/28 00:07:06;;;;;;;6.23;4.07;;;16.50;63.50;;;;;;5086426;27;45891;-67
2023/08/28 00:09:34;;;;;;;9.30;4.83;;;16.50;63.50;;;;;;5086432;27;46543;-67
2023/08/28 00:12:00;;;;;;;6.60;4.23;;;16.50;63.50;;;;;;5086650;27;46642;-67
2023/08/28 00:14:26;;;;;;;8.83;4.43;;;16.50;63.50;;;;;;5086200;27;47074;-68
2023/08/28 00:16:53;;;;;;;8.10;4.57;;;16.50;62.60;;;;;;5084385;27;46532;-68
2023/08/28 00:19:18;;;;;;;7.60;3.83;;;16.30;63.40;;;;;;5086926;27;45958;-67
2023/08/28 00:21:45;;;;;;;8.87;5.20;;;16.50;63.40;;;;;;5089287;27;46484;-69
2023/08/28 00:24:11;;;;;;;5.67;4.20;;;16.50;63.50;;;;;;5084901;27;47234;-69
2023/08/28 00:26:36;;;;;;;7.00;4.40;;;16.50;62.60;;;;;;5085927;27;46849;-70
2023/08/28 00:29:02;;;;;;;7.63;4.27;;;16.40;63.50;;;;;;5087526;27;45884;-72
2023/08/28 00:31:28;;;;;;;6.80;4.20;;;16.40;63.60;;;;;;5085394;27;46443;-69
2023/08/28 00:33:54;;;;;;;7.53;5.13;;;16.40;63.50;;;;;;5086682;27;46419;-69
2023/08/28 00:36:20;;;;;;;8.10;4.63;;;16.50;63.60;;;;;;5086178;27;46544;-69
2023/08/28 00:38:45;;;;;;;9.53;4.87;;;16.40;62.40;;;;;;5085452;27;47383;-69
2023/08/28 00:41:11;;;;;;;9.37;5.10;;;15.50;62.80;;;;;;5088792;27;46640;-69
2023/08/28 00:43:37;;;;;;;8.87;5.27;;;16.40;63.70;;;;;;5084721;27;46925;-70
2023/08/28 00:46:04;;;;;;;7.97;4.70;;;16.40;63.60;;;;;;5083869;27;46378;-72
2023/08/28 00:48:30;;;;;;;12.63;5.07;;;16.40;62.60;;;;;;5085050;27;46391;-70
2023/08/28 00:50:56;;;;;;;7.73;4.93;;;16.40;63.60;;;;;;5085827;27;46578;-70
2023/08/28 00:53:23;;;;;;;7.20;4.33;;;16.40;63.20;;;;;;5083643;27;47237;-70
2023/08/28 00:55:49;;;;;;;8.80;4.17;;;16.40;63.90;;;;;;5084875;27;45819;-70
2023/08/28 00:58:15;;;;;;;7.33;3.60;;;16.30;62.80;;;;;;5083100;27;46378;-69
2023/08/28 01:00:41;;;;;;;6.03;3.53;;;16.30;63.90;;;;;;5086203;27;46511;-69
2023/08/28 01:03:07;;;;;;;7.17;3.80;;;;;;;;;;5087431;27;46744;-69
2023/08/28 01:05:41;;;;;;;5.93;3.30;;;16.30;63.20;;;;;;5087864;27;46359;-69
2023/08/28 01:08:18;;;;;;;5.77;3.40;;;16.20;63.00;;;;;;5085006;27;46460;-70
2023/08/28 01:10:51;;;;;;;9.43;4.03;;;16.20;63.30;;;;;;5088898;27;46392;-69
2023/08/28 01:13:20;;;;;;;5.93;3.30;;;16.20;62.90;;;;;;5086086;27;47211;-70
2023/08/28 01:15:46;;;;;;;6.17;3.53;;;16.30;63.40;;;;;;5087377;27;46340;-70
2023/08/28 01:18:13;;;;;;;5.43;3.47;;;16.20;63.50;;;;;;5087863;27;46584;-69
2023/08/28 01:20:39;;;;;;;5.80;3.40;;;16.20;64.10;;;;;;5066841;27;46519;-69
2023/08/28 01:23:31;;;;;;;5.23;3.10;;;16.10;63.00;;;;;;5086093;27;46551;-72
2023/08/28 01:25:58;;;;;;;5.70;3.63;;;16.10;63.30;;;;;;5087510;27;46487;-69
2023/08/28 01:28:27;;;;;;;5.17;3.37;;;16.10;62.90;;;;;;5084644;27;46478;-70
2023/08/28 01:30:53;;;;;;;6.20;3.47;;;16.10;64.10;;;;;;5087358;27;46412;-69
2023/08/28 01:33:19;;;;;;;6.93;3.40;;;16.10;64.10;;;;;;5085512;27;46848;-69
2023/08/28 01:35:58;;;;;;;5.13;3.40;;;16.10;64.00;;;;;;5086619;27;46512;-69
2023/08/28 01:38:31;;;;;;;5.40;2.70;;;16.10;63.10;;;;;;5087032;27;46527;-70
2023/08/28 01:41:06;;;;;;;6.80;2.97;;;16.10;64.10;;;;;;5085655;27;46375;-69
2023/08/28 01:43:35;;;;;;;5.83;3.03;;;16.10;64.20;;;;;;5085273;27;48441;-69
2023/08/28 01:46:02;;;;;;;8.10;3.33;;;16.00;64.20;;;;;;5085790;27;46740;-68
2023/08/28 01:48:28;;;;;;;7.30;4.33;;;16.00;63.20;;;;;;5085248;27;46434;-68
2023/08/28 01:50:54;;;;;;;4.63;3.23;;;16.00;64.30;;;;;;5083917;27;46419;-67
2023/08/28 01:53:22;;;;;;;4.00;2.87;;;16.00;64.30;;;;;;5069240;27;46941;-68
2023/08/28 01:56:09;;;;;;;8.00;2.90;;;15.80;63.80;;;;;;5084156;27;46359;-68
2023/08/28 01:58:58;;;;;;;4.80;3.00;;;15.90;63.50;;;;;;5086076;27;46549;-69
2023/08/28 02:01:25;;;;;;;5.30;3.43;;;15.90;63.40;;;;;;5084876;27;46402;-68
2023/08/28 02:03:52;;;;;;;7.50;3.30;;;15.90;63.10;;;;;;5090083;27;47016;-68
2023/08/28 02:06:17;;;;;;;3.63;2.50;;;15.80;63.30;;;;;;5089499;27;46486;-68
2023/08/28 02:08:43;;;;;;;4.80;3.30;;;15.90;63.10;;;;;;5088025;27;46383;-69
2023/08/28 02:11:09;;;;;;;3.83;2.77;;;15.80;63.00;;;;;;5088390;27;46443;-68
2023/08/28 02:13:35;;;;;;;6.50;3.33;;;15.80;63.90;;;;;;5090645;27;46583;-68
2023/08/28 02:16:02;;;;;;;6.00;2.93;;;15.90;63.10;;;;;;5084641;27;46536;-68
2023/08/28 02:18:28;;;;;;;3.73;2.40;;;;;;;;;;5085974;27;46352;-66
2023/08/28 02:20:54;;;;;;;4.13;3.07;;;;;;;;;;5087473;27;46426;-68
2023/08/28 02:23:20;;;;;;;5.10;2.47;;;;;;;;;;5086452;27;46531;-67
2023/08/28 02:25:47;;;;;;;5.70;3.00;;;15.80;62.60;;;;;;5087925;27;46494;-68
2023/08/28 02:28:13;;;;;;;4.00;2.50;;;15.70;63.20;;;;;;5089398;27;46795;-67
2023/08/28 02:30:39;;;;;;;12.50;2.80;;;15.60;63.20;;;;;;5087078;27;46512;-68
2023/08/28 02:33:05;;;;;;;3.83;2.47;;;15.60;64.00;;;;;;5088658;27;47102;-68
2023/08/28 02:35:31;;;;;;;4.83;3.20;;;15.60;64.10;;;;;;5088544;27;46791;-67
2023/08/28 02:37:56;;;;;;;5.37;2.53;;;15.60;62.90;;;;;;5071757;27;46468;-67
2023/08/28 02:40:22;;;;;;;6.17;2.70;;;15.60;63.00;;;;;;5090045;27;46673;-68
2023/08/28 02:42:47;;;;;;;5.80;3.10;;;15.50;63.30;;;;;;5089192;27;46384;-68
2023/08/28 02:45:14;;;;;;;4.73;3.10;;;;;;;;;;5087450;27;46366;-68
2023/08/28 02:47:40;;;;;;;4.70;3.07;;;;;;;;;;5079358;27;46823;-67
2023/08/28 02:50:05;;;;;;;6.93;3.33;;;15.50;63.10;;;;;;5088075;27;46425;-68
2023/08/28 02:52:31;;;;;;;6.07;3.63;;;15.30;64.00;;;;;;5085226;27;48342;-68
2023/08/28 02:54:57;;;;;;;7.67;3.70;;;15.20;64.10;;;;;;5090227;27;46569;-68
2023/08/28 02:57:22;;;;;;;5.90;3.73;;;15.10;64.30;;;;;;5088023;27;46376;-68
2023/08/28 02:59:48;;;;;;;6.30;3.83;;;15.10;65.00;;;;;;5088007;27;46466;-69
2023/08/28 03:02:14;;;;;;;9.60;4.80;;;;;;;;;;5089272;27;46462;-68
2023/08/28 03:04:42;;;;;;;6.80;4.20;;;15.20;63.70;;;;;;5088046;27;46470;-68
2023/08/28 03:07:08;;;;;;;6.87;3.80;;;15.30;63.50;;;;;;5088946;27;46502;-68
2023/08/28 03:09:34;;;;;;;5.77;4.00;;;;;;;;;;5088849;27;46737;-68
2023/08/28 03:12:00;;;;;;;6.73;4.20;;;;;;;;;;5088195;27;46478;-68
2023/08/28 03:14:26;;;;;;;6.17;4.03;;;15.40;63.10;;;;;;5086541;27;45900;-68
2023/08/28 03:16:51;;;;;;;11.77;5.07;;;15.40;63.00;;;;;;5087000;27;46587;-68
2023/08/28 03:19:17;;;;;;;8.30;4.30;;;;;;;;;;5088147;27;46473;-68
2023/08/28 03:21:43;;;;;;;7.87;4.93;;;;;;;;;;5089435;27;46795;-67
2023/08/28 03:24:09;;;;;;;7.00;4.60;;;15.50;62.80;;;;;;5087262;27;46818;-68
2023/08/28 03:26:35;;;;;;;7.07;4.50;;;;;;;;;;5087746;27;46777;-68
2023/08/28 03:29:01;;;;;;;8.10;5.03;;;15.50;63.10;;;;;;5086534;27;46706;-68
2023/08/28 03:31:30;;;;;;;6.33;3.67;;;15.50;62.90;;;;;;5086282;27;45959;-69
2023/08/28 03:33:56;;;;;;;10.37;4.50;;;;;;;;;;5087273;27;46619;-68
2023/08/28 03:36:22;;;;;;;7.37;5.37;;;;;;;;;;5085271;27;46504;-68
2023/08/28 03:38:48;;;;;;;11.97;4.33;;;;;;;;;;5087700;27;46419;-68
2023/08/28 03:41:14;;;;;;;7.83;4.13;;;15.40;63.30;;;;;;5085502;27;47153;-68
2023/08/28 03:43:39;;;;;;;6.10;4.00;;;15.30;63.50;;;;;;5085987;27;46325;-69
2023/08/28 03:46:05;;;;;;;7.63;4.27;;;15.30;64.40;;;;;;5087597;27;46738;-68
2023/08/28 03:48:31;;;;;;;6.33;3.67;;;;;;;;;;5086143;27;46422;-68
2023/08/28 03:50:56;;;;;;;9.10;4.10;;;14.80;63.20;;;;;;5089052;27;47144;-68
2023/08/28 03:53:22;;;;;;;8.90;4.50;;;15.00;64.70;;;;;;5086439;27;46432;-68
2023/08/28 03:55:48;;;;;;;6.70;3.83;;;15.00;65.00;;;;;;5072651;27;46724;-68
2023/08/28 03:58:13;;;;;;;6.70;4.20;;;15.00;64.10;;;;;;5085642;27;46224;-69
2023/08/28 04:00:39;;;;;;;6.70;4.30;;;15.00;65.00;;;;;;5087960;27;46437;-67
2023/08/28 04:03:05;;;;;;;7.63;4.77;;;15.00;65.20;;;;;;5088428;27;45862;-68
2023/08/28 04:05:35;;;;;;;7.37;4.50;;;14.90;64.30;;;;;;5087104;27;46352;-69
2023/08/28 04:08:00;;;;;;;8.37;5.07;;;14.90;64.30;;;;;;5083903;27;46552;-68
2023/08/28 04:10:26;;;;;;;6.10;4.20;;;15.00;64.30;;;;;;5086231;27;46578;-68
2023/08/28 04:12:51;;;;;;;9.40;5.10;;;15.00;65.30;;;;;;5087715;27;46461;-68
2023/08/28 04:15:19;;;;;;;7.17;5.00;;;;;;;;;;5088772;27;46478;-68
2023/08/28 04:17:45;;;;;;;10.03;5.40;;;15.10;63.80;;;;;;5086009;27;45816;-68
2023/08/28 04:20:13;;;;;;;8.37;5.00;;;15.10;64.80;;;;;;5085552;27;46796;-67
2023/08/28 04:22:43;;;;;;;7.17;5.03;;;15.00;64.20;;;;;;5088888;27;46539;-67
2023/08/28 04:25:09;;;;;;;7.40;5.10;;;15.00;65.10;;;;;;5087088;27;46541;-68
2023/08/28 04:27:35;;;;;;;9.80;4.70;;;14.80;65.00;;;;;;5085130;27;46581;-67
2023/08/28 04:30:01;;;;;;;7.97;5.10;;;14.80;65.80;;;;;;5087573;27;47233;-68
2023/08/28 04:32:27;;;;;;;8.03;4.83;;;14.70;65.90;;;;;;5070753;27;46519;-68
2023/08/28 04:34:52;;;;;;;9.10;5.90;;;14.60;66.40;;;;;;5085507;27;46445;-67
2023/08/28 04:37:18;;;;;;;9.60;5.87;;;14.50;66.00;;;;;;5086664;27;46545;-68
2023/08/28 04:39:43;;;;;;;15.40;6.80;;;14.50;67.20;;;;;;5087601;27;46906;-67
2023/08/28 04:42:14;;;;;;;8.80;5.37;;;14.50;67.20;;;;;;5085856;27;46514;-67
2023/08/28 04:44:40;;;;;;;12.40;6.47;;;14.50;67.20;;;;;;5087909;27;46553;-67
2023/08/28 04:47:05;;;;;;;8.20;6.50;;;14.50;66.20;;;;;;5085899;27;46383;-68
2023/08/28 04:49:31;;;;;;;9.53;6.33;;;14.50;66.40;;;;;;5089173;27;46768;-68
2023/08/28 04:51:57;;;;;;;11.50;6.97;;;;;;;;;;5082118;27;46478;-68
2023/08/28 04:54:23;;;;;;;9.47;6.00;;;14.50;66.40;;;;;;5083862;27;45885;-68
2023/08/28 04:56:48;;;;;;;10.73;6.80;;;14.40;66.90;;;;;;5086858;27;46501;-68
2023/08/28 04:59:14;;;;;;;9.93;6.73;;;14.40;67.50;;;;;;5086465;27;46509;-67
2023/08/28 05:01:40;;;;;;;11.23;7.07;;;14.30;67.30;;;;;;5087659;27;46695;-68
2023/08/28 05:04:06;;;;;;;12.17;7.40;;;14.40;68.50;;;;;;5086565;27;46530;-67
2023/08/28 05:06:32;;;;;;;12.60;7.17;;;;;;;;;;5086794;27;45958;-68
2023/08/28 05:08:58;;;;;;;13.33;8.63;;;;;;;;;;5085523;27;47117;-68
2023/08/28 05:11:24;;;;;;;10.43;8.03;;;14.40;67.40;;;;;;5087312;27;46458;-67
2023/08/28 05:13:49;;;;;;;15.73;7.53;;;14.40;68.30;;;;;;5086348;27;46822;-67
2023/08/28 05:16:15;;;;;;;11.27;8.10;;;14.40;68.50;;;;;;5086956;27;46693;-68
2023/08/28 05:18:40;;;;;;;13.00;7.70;;;14.40;67.40;;;;;;5082427;27;47035;-68
2023/08/28 05:21:06;;;;;;;14.87;7.70;;;14.40;68.60;;;;;;5085383;27;46429;-68
2023/08/28 05:23:32;;;;;;;12.80;6.80;;;14.40;68.50;;;;;;5085341;27;46438;-68
2023/08/28 05:25:58;;;;;;;12.00;7.07;;;14.40;68.50;;;;;;5067302;27;46502;-68
2023/08/28 05:28:23;;;;;;;9.17;6.87;;;14.40;67.40;;;;;;5085885;27;47026;-67
2023/08/28 05:30:49;;;;;;;9.50;6.87;;;14.40;68.50;;;;;;5088077;27;46756;-67
2023/08/28 05:33:15;;;;;;;10.23;6.43;;;14.40;68.50;;;;;;5085100;27;46769;-68
2023/08/28 05:35:41;;;;;;;12.10;6.07;;;14.50;68.60;;;;;;5083286;27;46520;-67
2023/08/28 05:38:07;;;;;;;13.50;6.63;;;14.40;69.70;;;;;;5084367;27;47256;-68
2023/08/28 05:40:33;;;;;;;9.53;6.27;;;14.40;68.50;;;;;;5090173;27;46375;-67
2023/08/28 05:42:59;;;;;;;11.90;6.20;;;14.50;68.60;;;;;;5090404;27;46368;-68
2023/08/28 05:45:24;;;;;;;9.60;6.00;;;14.40;68.50;;;;;;5071290;27;46543;-67
2023/08/28 05:47:50;;;;;;;8.67;6.40;;;14.40;68.50;;;;;;5088857;27;46414;-68
2023/08/28 05:50:18;;;;;;;11.63;7.40;;;14.50;68.60;;;;;;5087624;27;46492;-68
2023/08/28 05:52:44;;;;;;;12.17;6.17;;;14.50;68.60;;;;;;5088931;27;46413;-68
2023/08/28 05:55:10;;;;;;;18.73;9.70;;;14.40;68.50;;;;;;5087973;27;46447;-68
2023/08/28 05:57:35;;;;;;;27.53;10.13;;;14.50;68.60;;;;;;5089142;27;46159;-68
2023/08/28 06:00:02;;;;;;;46.37;15.23;;;14.40;68.50;;;;;;5088427;27;46330;-68
2023/08/28 06:02:28;;;;;;;27.83;11.70;;;14.40;68.50;;;;;;5089349;27;46541;-68
2023/08/28 06:04:54;;;;;;;13.77;7.30;;;14.30;69.00;;;;;;5090323;27;46726;-69
2023/08/28 06:07:19;;;;;;;19.00;6.53;;;14.20;69.40;;;;;;5072941;27;47206;-68
2023/08/28 06:09:45;;;;;;;8.90;6.53;;;14.30;69.50;;;;;;5082791;27;46618;-70
2023/08/28 06:12:11;;;;;;;10.30;6.23;;;14.20;69.40;;;;;;5087544;27;46798;-67
2023/08/28 06:17:07;;;;;;;11.90;6.73;;;14.10;69.40;;;;;;5123755;27;47179;-67
2023/08/28 06:19:33;;;;;;;10.80;6.73;;;14.10;70.40;;;;;;5093639;27;46507;-68
2023/08/28 06:22:04;;;;;;;13.03;6.87;;;14.10;70.10;;;;;;5119868;27;46181;-68
2023/08/28 06:24:30;;;;;;;10.20;6.40;;;14.10;70.20;;;;;;5112446;27;46530;-68
2023/08/28 06:26:56;;;;;;;13.00;6.30;;;14.10;69.40;;;;;;5112855;27;46737;-69
2023/08/28 06:29:21;;;;;;;13.07;6.83;;;14.10;69.50;;;;;;5116169;27;46493;-68
2023/08/28 06:31:47;;;;;;;10.43;6.37;;;14.10;69.50;;;;;;5122970;27;46798;-68
2023/08/28 06:34:14;;;;;;;12.90;7.40;;;14.10;69.30;;;;;;5122864;27;46500;-68
2023/08/28 06:36:40;;;;;;;12.10;7.17;;;14.10;69.40;;;;;;5123490;27;47178;-67
2023/08/28 06:39:07;;;;;;;11.43;7.83;;;14.10;69.30;;;;;;5124483;27;46387;-68
2023/08/28 06:41:33;;;;;;;9.00;5.70;;;14.10;70.10;;;;;;5124443;27;45826;-68
2023/08/28 06:44:00;;;;;;;9.30;6.40;;;14.20;69.20;;;;;;5120558;27;46483;-67
2023/08/28 06:46:25;;;;;;;9.10;6.30;;;14.10;69.10;;;;;;5123438;27;46775;-66
2023/08/28 06:48:52;;;;;;;9.87;6.23;;;;;;;;;;5118561;27;46677;-67
2023/08/28 06:51:19;;;;;;;8.83;6.20;;;14.20;69.00;;;;;;5126659;27;46551;-68
2023/08/28 06:53:44;;;;;;;14.03;8.17;;;14.20;70.00;;;;;;5113044;27;46633;-67
2023/08/28 06:56:10;;;;;;;11.63;7.40;;;14.20;68.90;;;;;;5117587;27;46514;-67
2023/08/28 06:58:36;;;;;;;9.60;6.70;;;14.20;68.80;;;;;;5134502;27;46678;-67
2023/08/28 07:01:02;;;;;;;9.33;6.30;;;;;;;;;;5123797;27;46323;-67
2023/08/28 07:03:28;;;;;;;11.90;6.33;;;;;;;;;;5124205;27;46424;-66
2023/08/28 07:05:54;;;;;;;11.53;8.17;;;;;;;;;;5112981;27;47233;-68
2023/08/28 07:08:19;;;;;;;13.10;6.97;;;14.20;68.90;;;;;;5114869;27;46464;-68
2023/08/28 07:10:46;;;;;;;9.10;5.83;;;;;;;;;;5116185;27;46450;-67
2023/08/28 07:13:11;;;;;;;10.70;7.43;;;14.30;68.60;;;;;;5114088;27;46536;-68
2023/08/28 07:15:40;;;;;;;10.80;6.80;;;14.30;68.80;;;;;;5118129;27;47090;-66
2023/08/28 07:18:05;;;;;;;9.37;6.17;;;14.20;68.90;;;;;;5110957;27;46442;-67
2023/08/28 07:20:31;;;;;;;9.80;6.20;;;14.20;69.70;;;;;;5118054;27;46568;-68
2023/08/28 07:22:57;;;;;;;9.20;5.60;;;14.20;70.00;;;;;;5114360;27;46417;-68
2023/08/28 07:25:23;;;;;;;7.27;5.50;;;14.20;69.90;;;;;;5114664;27;46666;-69
2023/08/28 07:27:49;;;;;;;8.80;5.30;;;14.20;69.10;;;;;;5107144;27;46852;-66
2023/08/28 07:30:15;;;;;;;8.37;5.20;;;14.20;69.20;;;;;;5111640;27;46530;-66
2023/08/28 07:32:41;;;;;;;8.00;4.93;;;14.20;70.00;;;;;;5113477;27;46539;-68
2023/08/28 07:35:08;;;;;;;10.67;6.17;;;14.30;70.00;;;;;;5119635;27;47129;-67
2023/08/28 07:37:34;;;;;;;7.80;5.20;;;14.20;68.70;;;;;;5111923;27;46464;-66
2023/08/28 07:40:00;;;;;;;9.00;5.97;;;14.30;70.00;;;;;;5116501;27;46446;-68
2023/08/28 07:42:26;;;;;;;9.23;6.10;;;14.20;69.80;;;;;;5114523;27;46404;-68
2023/08/28 07:44:52;;;;;;;8.40;5.70;;;14.30;69.30;;;;;;5114492;27;46599;-68
2023/08/28 07:47:18;;;;;;;10.13;6.67;;;14.30;69.00;;;;;;5094721;27;46729;-72
2023/08/28 07:49:44;;;;;;;12.67;5.93;;;14.30;70.00;;;;;;5127133;27;46442;-68
2023/08/28 07:52:09;;;;;;;9.00;6.00;;;14.30;69.00;;;;;;5121449;27;45845;-69
2023/08/28 07:54:36;;;;;;;8.53;5.73;;;14.30;69.20;;;;;;5120206;27;46470;-66
2023/08/28 07:57:03;;;;;;;8.53;5.63;;;14.40;69.00;;;;;;5112477;27;46654;-67
2023/08/28 07:59:29;;;;;;;10.17;6.40;;;14.40;69.90;;;;;;5124010;27;46595;-69
2023/08/28 08:01:55;;;;;;;10.90;6.20;;;14.40;70.00;;;;;;5120702;27;46409;-68
2023/08/28 08:04:21;;;;;;;8.80;6.30;;;14.40;69.10;;;;;;5116227;27;46416;-67
2023/08/28 08:06:46;;;;;;;11.00;7.23;;;14.40;69.40;;;;;;5112906;27;46609;-67
2023/08/28 08:09:12;;;;;;;11.07;6.63;;;14.40;70.00;;;;;;5117882;27;46386;-69
2023/08/28 08:11:37;;;;;;;8.67;6.37;;;14.40;70.00;;;;;;5127967;27;46539;-67
2023/08/28 08:14:03;;;;;;;8.63;4.57;;;14.50;69.80;;;;;;5116179;27;46387;-67
2023/08/28 08:16:29;;;;;;;8.10;3.43;;;14.70;68.40;;;;;;5094822;27;46696;-69
2023/08/28 08:18:55;;;;;;;4.53;3.47;;;14.70;67.70;;;;;;5121280;27;46501;-69
2023/08/28 08:21:20;;;;;;;5.00;3.60;;;14.80;70.10;;;;;;5113423;27;46499;-69
2023/08/28 08:23:47;;;;;;;6.43;3.50;;;14.80;67.80;;;;;;5094456;27;47002;-68
2023/08/28 08:26:13;;;;;;;5.60;3.60;;;14.80;68.90;;;;;;5107475;27;46430;-68
2023/08/28 08:28:39;;;;;;;7.43;3.80;;;;;;;;;;5103239;27;46722;-68
2023/08/28 08:31:05;;;;;;;6.53;3.40;;;15.00;68.00;;;;;;5106048;27;46387;-67
2023/08/28 08:33:31;;;;;;;4.90;2.93;;;15.10;69.00;;;;;;5108009;27;46395;-67
2023/08/28 08:35:56;;;;;;;4.97;3.33;;;15.30;67.20;;;;;;5106891;27;46396;-67
2023/08/28 08:38:22;;;;;;;7.80;2.60;;;15.30;66.60;;;;;;5106124;27;46422;-67
2023/08/28 08:40:52;;;;;;;4.40;2.80;;;12.70;63.50;;;;;;5105969;27;46943;-68
2023/08/28 08:43:17;;;;;;;4.13;2.60;;;15.60;67.00;;;;;;5105546;27;46441;-67
2023/08/28 08:45:44;;;;;;;4.80;2.50;;;15.60;66.80;;;;;;5107367;27;46989;-68
2023/08/28 08:48:16;;;;;;;9.50;3.30;;;15.40;66.30;;;;;;5105122;27;46897;-69
2023/08/28 08:50:46;;;;;;;6.70;3.10;;;15.30;67.70;;;;;;5108933;27;46433;-69
2023/08/28 08:53:33;;;;;;;4.63;3.03;;;15.30;67.70;;;;;;5108852;27;47172;-68
2023/08/28 08:56:01;;;;;;;7.83;3.13;;;15.30;67.60;;;;;;5093064;27;46614;-67
2023/08/28 08:58:27;;;;;;;4.57;3.53;;;15.30;67.60;;;;;;5109257;27;46449;-67
2023/08/28 09:00:54;;;;;;;6.07;3.80;;;15.20;67.60;;;;;;5115817;27;46513;-67
2023/08/28 09:03:21;;;;;;;7.70;4.17;;;15.30;67.50;;;;;;5107893;27;46402;-67
2023/08/28 09:05:49;;;;;;;5.77;4.20;;;15.20;67.40;;;;;;5113003;27;46458;-67
2023/08/28 09:08:15;;;;;;;9.83;4.17;;;15.20;67.60;;;;;;5116635;27;46395;-68
2023/08/28 09:10:45;;;;;;;5.20;4.33;;;15.30;67.30;;;;;;5093773;27;46524;-68
2023/08/28 09:13:11;;;;;;;8.10;5.07;;;15.40;67.10;;;;;;5112353;27;47012;-68
2023/08/28 09:15:36;;;;;;;5.40;4.53;;;15.50;67.10;;;;;;5116983;27;46478;-68
2023/08/28 09:18:03;;;;;;;7.07;5.20;;;15.50;67.00;;;;;;5113232;27;46498;-68
2023/08/28 09:20:29;;;;;;;7.50;5.13;;;15.60;66.70;;;;;;5126208;27;46235;-68
2023/08/28 09:22:55;;;;;;;6.07;4.90;;;15.70;66.60;;;;;;5118518;27;46028;-68
2023/08/28 09:25:22;;;;;;;7.30;5.60;;;15.50;66.70;;;;;;5114037;27;46743;-67
2023/08/28 09:27:55;;;;;;;8.20;5.30;;;15.40;67.30;;;;;;5126718;27;46686;-68
2023/08/28 09:30:31;;;;;;;6.83;5.27;;;15.50;67.20;;;;;;5117989;27;46755;-66
2023/08/28 09:32:59;;;;;;;7.77;5.13;;;15.40;67.00;;;;;;5122693;27;46796;-68
2023/08/28 09:35:34;;;;;;;6.87;4.27;;;15.40;67.00;;;;;;5112124;27;46416;-68
2023/08/28 09:38:01;;;;;;;5.50;4.33;;;15.30;67.50;;;;;;5121690;27;46407;-68
2023/08/28 09:40:32;;;;;;;6.80;5.30;;;15.30;67.60;;;;;;5119775;27;46526;-68
2023/08/28 09:42:59;;;;;;;5.20;4.40;;;15.30;67.50;;;;;;5116530;27;46705;-68
2023/08/28 09:45:33;;;;;;;5.47;4.37;;;15.30;67.20;;;;;;5124659;27;46426;-68
2023/08/28 09:48:02;;;;;;;6.00;4.80;;;15.20;67.40;;;;;;5128525;27;46432;-68
2023/08/28 09:50:29;;;;;;;4.50;3.87;;;15.20;67.60;;;;;;5119716;27;46574;-68
2023/08/28 09:53:04;;;;;;;4.90;3.80;;;15.20;67.60;;;;;;5121913;27;46468;-69
2023/08/28 09:55:30;;;;;;;4.70;3.80;;;15.20;67.60;;;;;;5124095;27;46477;-68
2023/08/28 09:57:55;;;;;;;4.77;3.60;;;15.20;67.70;;;;;;5112602;27;46707;-67
2023/08/28 10:00:21;;;;;;;5.80;4.47;;;15.30;67.60;;;;;;5118788;27;46453;-68
2023/08/28 10:02:47;;;;;;;4.80;4.20;;;15.30;67.40;;;;;;5116907;27;48078;-68
2023/08/28 10:05:15;;;;;;;5.47;4.20;;;15.30;67.30;;;;;;5111618;27;46427;-67
2023/08/28 10:07:43;;;;;;;5.60;4.30;;;15.30;67.20;;;;;;5112792;27;46757;-67
2023/08/28 10:10:15;;;;;;;5.40;4.10;;;15.40;67.10;;;;;;5117231;27;46811;-67
2023/08/28 10:12:42;;;;;;;4.20;3.50;;;15.70;66.80;;;;;;5114227;27;48018;-68
2023/08/28 10:15:08;;;;;;;4.73;4.20;;;15.80;66.40;;;;;;5118856;27;46503;-69
2023/08/28 10:17:35;;;;;;;5.20;4.00;;;15.80;66.00;;;;;;5120924;27;46506;-71
2023/08/28 10:20:03;;;;;;;5.50;4.07;;;15.80;66.30;;;;;;5109190;27;45965;-69
2023/08/28 10:22:33;;;;;;;4.20;3.17;;;15.90;65.80;;;;;;5111195;27;46454;-70
2023/08/28 10:24:59;;;;;;;5.07;3.60;;;15.90;65.90;;;;;;5108814;27;46434;-68
2023/08/28 10:27:25;;;;;;;5.00;3.60;;;15.90;66.00;;;;;;5107495;27;46437;-68
2023/08/28 10:29:53;;;;;;;4.10;2.63;;;15.90;65.80;;;;;;5110291;27;46846;-67
2023/08/28 10:32:20;;;;;;;4.30;2.67;;;16.20;65.50;;;;;;5110051;27;46631;-68
2023/08/28 10:34:46;;;;;;;3.00;1.97;;;16.40;64.30;;;;;;5113413;27;46358;-70
2023/08/28 10:37:13;;;;;;;2.80;2.17;;;16.50;64.00;;;;;;5123755;27;46425;-70
2023/08/28 10:39:41;;;;;;;4.03;2.30;;;16.70;63.50;;;;;;5103968;27;46740;-67
2023/08/28 10:42:09;;;;;;;3.40;2.00;;;16.80;62.90;;;;;;5117321;27;46685;-67
2023/08/28 10:44:36;;;;;;;3.33;2.10;;;17.10;62.80;;;;;;5122614;27;46376;-69
2023/08/28 10:47:02;;;;;;;3.70;1.70;;;17.30;62.30;;;;;;5121250;27;46363;-67
2023/08/28 10:49:28;;;;;;;3.37;1.83;;;17.20;61.50;;;;;;5117412;27;45891;-67
2023/08/28 10:52:06;;;;;;;3.23;2.20;;;17.10;61.40;;;;;;5120798;27;46565;-67
2023/08/28 10:54:40;;;;;;;4.33;2.43;;;17.10;62.20;;;;;;5108577;27;46524;-67
2023/08/28 10:57:10;;;;;;;5.20;2.80;;;16.80;62.10;;;;;;5124275;27;46605;-69
2023/08/28 10:59:45;;;;;;;3.57;2.20;;;16.80;62.20;;;;;;5120144;27;46405;-68
2023/08/28 11:02:12;;;;;;;3.63;1.90;;;16.80;61.90;;;;;;5113743;27;46543;-68
2023/08/28 11:04:40;;;;;;;3.73;2.07;;;16.80;61.60;;;;;;5115425;27;46474;-68
2023/08/28 11:07:27;;;;;;;3.67;1.97;;;16.90;61.20;;;;;;5123662;27;46745;-67
2023/08/28 11:10:20;;;;;;;4.23;2.27;;;16.80;60.40;;;;;;5128567;27;46140;-68
2023/08/28 11:13:05;;;;;;;4.63;2.37;;;16.80;60.00;;;;;;5112639;27;46546;-68
2023/08/28 11:15:38;;;;;;;3.47;1.97;;;16.70;60.00;;;;;;5113707;27;46855;-67
2023/08/28 11:18:13;;;;;;;2.70;1.70;;;16.60;58.70;;;;;;5116595;27;46409;-68
2023/08/28 11:20:38;;;;;;;5.00;2.20;;;16.70;59.50;;;;;;5123017;27;46398;-69
2023/08/28 11:23:04;;;;;;;3.10;1.83;;;16.70;59.30;;;;;;5128021;27;46621;-69
2023/08/28 11:25:39;;;;;;;3.33;1.47;;;16.70;59.30;;;;;;5125076;27;46457;-69
2023/08/28 11:28:22;;;;;;;3.10;1.63;;;16.70;58.80;;;;;;5119017;27;45925;-68
2023/08/28 11:30:48;;;;;;;3.10;1.50;;;16.80;58.30;;;;;;5117868;27;46926;-69
2023/08/28 11:33:13;;;;;;;4.80;1.90;;;16.80;57.90;;;;;;5124300;27;46538;-69
2023/08/28 11:35:39;;;;;;;2.80;1.73;;;16.70;58.30;;;;;;5114772;27;46445;-67
2023/08/28 11:38:05;;;;;;;2.83;1.60;;;16.60;58.60;;;;;;5122160;27;46422;-69
2023/08/28 11:40:31;;;;;;;3.13;1.87;;;16.80;58.50;;;;;;5123347;27;46478;-69
2023/08/28 11:43:06;;;;;;;3.60;2.00;;;16.80;58.40;;;;;;5122881;27;46944;-68
2023/08/28 11:45:32;;;;;;;3.97;1.70;;;17.10;58.20;;;;;;5125721;27;46452;-68
2023/08/28 11:48:03;;;;;;;4.33;1.73;;;17.20;58.30;;;;;;5119303;27;46756;-68
2023/08/28 11:50:29;;;;;;;3.80;2.07;;;17.50;57.20;;;;;;5114685;27;46626;-69
2023/08/28 11:52:55;;;;;;;5.20;2.10;;;17.60;56.60;;;;;;5099036;27;48394;-67
2023/08/28 11:55:20;;;;;;;3.67;2.33;;;17.50;56.60;;;;;;5098051;27;46457;-68
2023/08/28 11:57:48;;;;;;;3.57;2.17;;;17.50;56.80;;;;;;5118214;27;46418;-69
2023/08/28 12:00:16;;;;;;;3.40;2.27;;;17.30;57.20;;;;;;5120861;27;46491;-69
2023/08/28 12:02:47;;;;;;;3.90;2.03;;;17.50;57.10;;;;;;5111217;27;47128;-68
2023/08/28 12:05:17;;;;;;;4.17;2.63;;;17.40;56.90;;;;;;5107276;27;46501;-70
2023/08/28 12:07:43;;;;;;;4.10;1.80;;;17.20;56.80;;;;;;5115702;27;46363;-67
2023/08/28 12:10:11;;;;;;;5.00;2.23;;;17.00;57.50;;;;;;5115906;27;46351;-70
2023/08/28 12:12:36;;;;;;;3.73;2.27;;;16.70;57.80;;;;;;5115355;27;46735;-69
2023/08/28 12:15:03;;;;;;;6.07;2.47;;;16.60;57.70;;;;;;5097483;27;45988;-70
2023/08/28 12:17:29;;;;;;;5.33;2.60;;;16.40;57.10;;;;;;5109198;27;46448;-70
2023/08/28 12:19:55;;;;;;;4.43;2.40;;;16.40;58.30;;;;;;5105412;27;46455;-69
2023/08/28 12:22:21;;;;;;;5.20;2.50;;;16.30;58.80;;;;;;5098984;27;48261;-70
2023/08/28 12:24:49;;;;;;;3.33;2.10;;;16.10;59.30;;;;;;5112551;27;46430;-70
2023/08/28 12:27:15;;;;;;;3.70;2.10;;;16.00;59.30;;;;;;5108805;27;46700;-70
2023/08/28 12:29:41;;;;;;;2.97;1.80;;;15.90;59.30;;;;;;5113201;27;46620;-71
2023/08/28 12:32:09;;;;;;;3.90;2.30;;;15.90;59.40;;;;;;5117471;27;47411;-72
2023/08/28 12:34:37;;;;;;;4.50;2.50;;;15.90;59.50;;;;;;5110602;27;46644;-72
2023/08/28 12:37:11;;;;;;;5.30;2.50;;;15.90;59.60;;;;;;5103209;27;46399;-72
2023/08/28 12:39:46;;;;;;;3.97;2.33;;;15.80;59.60;;;;;;5119037;27;46811;-73
2023/08/28 12:42:13;;;;;;;3.77;2.30;;;15.80;60.00;;;;;;5117344;27;46668;-71
2023/08/28 12:44:40;;;;;;;4.70;2.27;;;15.60;60.50;;;;;;5112477;27;46485;-72
2023/08/28 12:47:06;;;;;;;4.17;2.37;;;15.50;60.80;;;;;;5118194;27;46468;-72
2023/08/28 12:49:32;;;;;;;5.03;2.20;;;15.30;61.10;;;;;;5116388;27;46422;-70
2023/08/28 12:51:59;;;;;;;4.00;2.60;;;15.10;61.20;;;;;;5123226;27;45913;-70
2023/08/28 12:54:25;;;;;;;4.77;2.40;;;15.10;61.60;;;;;;5119304;27;46336;-71
2023/08/28 12:56:53;;;;;;;4.23;2.57;;;15.10;60.80;;;;;;5117607;27;46428;-71